Bierbeek, Belgium
Current Conditions -  °F | °C
As of 7:22 PM on Monday 26 Jan 2015 (Local Time) from EBBE Reporting Station
Broken Clouds Broken Clouds  
Wind Chill:   Ceiling: 5000
Heat Index:   Visibility: 6mi
Dew Point:   Wind: 10mph
Humidity: 81%   Direction: 320°NW
Pressure: 30.15"   Gusts: NA
Location:  50.83°N, 4.76°E
Report Text: EBBE 261822Z 32009KT 9999 FEW024 BKN050 06/03 Q1021 BLU BLU
Loading
Personal Weather Stations






























Interactive Weather Map New forecast layout! Learn more

10-Day Weather Forecast

Advertisements
Track Severe Weather on mobile